sensor_id;sensor_type;location;lat;lon;timestamp;P1;durP1;ratioP1;P2;durP2;ratioP2
29452;SDS011;16424;50.956;5.320;2023-05-14T00:00:47;6.75;;;5.50;;
29452;SDS011;16424;50.956;5.320;2023-05-14T00:03:13;11.18;;;5.28;;
29452;SDS011;16424;50.956;5.320;2023-05-14T00:05:39;7.63;;;6.07;;
29452;SDS011;16424;50.956;5.320;2023-05-14T00:08:04;6.82;;;5.43;;
29452;SDS011;16424;50.956;5.320;2023-05-14T00:10:30;8.98;;;5.20;;
29452;SDS011;16424;50.956;5.320;2023-05-14T00:12:56;8.90;;;5.85;;
29452;SDS011;16424;50.956;5.320;2023-05-14T00:15:22;9.57;;;6.88;;
29452;SDS011;16424;50.956;5.320;2023-05-14T00:17:47;8.30;;;6.38;;
29452;SDS011;16424;50.956;5.320;2023-05-14T00:20:13;6.57;;;5.70;;
29452;SDS011;16424;50.956;5.320;2023-05-14T00:22:38;7.50;;;5.68;;
29452;SDS011;16424;50.956;5.320;2023-05-14T00:25:05;7.55;;;6.30;;
29452;SDS011;16424;50.956;5.320;2023-05-14T00:27:32;9.02;;;6.20;;
29452;SDS011;16424;50.956;5.320;2023-05-14T00:29:58;7.47;;;6.03;;
29452;SDS011;16424;50.956;5.320;2023-05-14T00:32:24;10.40;;;5.95;;
29452;SDS011;16424;50.956;5.320;2023-05-14T00:34:49;11.02;;;6.78;;
29452;SDS011;16424;50.956;5.320;2023-05-14T00:37:15;8.18;;;6.50;;
29452;SDS011;16424;50.956;5.320;2023-05-14T00:39:41;7.15;;;6.25;;
29452;SDS011;16424;50.956;5.320;2023-05-14T00:42:06;8.07;;;6.43;;
29452;SDS011;16424;50.956;5.320;2023-05-14T00:44:32;9.35;;;7.20;;
29452;SDS011;16424;50.956;5.320;2023-05-14T00:46:58;10.55;;;6.88;;
29452;SDS011;16424;50.956;5.320;2023-05-14T00:49:24;8.60;;;6.50;;
29452;SDS011;16424;50.956;5.320;2023-05-14T00:51:51;11.43;;;7.22;;
29452;SDS011;16424;50.956;5.320;2023-05-14T00:54:17;10.70;;;6.70;;
29452;SDS011;16424;50.956;5.320;2023-05-14T00:56:44;11.60;;;7.22;;
29452;SDS011;16424;50.956;5.320;2023-05-14T00:59:10;13.80;;;7.47;;
29452;SDS011;16424;50.956;5.320;2023-05-14T01:01:36;13.27;;;8.00;;
29452;SDS011;16424;50.956;5.320;2023-05-14T01:04:02;8.70;;;7.60;;
29452;SDS011;16424;50.956;5.320;2023-05-14T01:12:13;15.93;;;8.15;;
29452;SDS011;16424;50.956;5.320;2023-05-14T01:17:13;10.88;;;8.43;;
29452;SDS011;16424;50.956;5.320;2023-05-14T01:19:44;10.48;;;8.15;;
29452;SDS011;16424;50.956;5.320;2023-05-14T01:22:11;10.50;;;8.60;;
29452;SDS011;16424;50.956;5.320;2023-05-14T01:24:37;13.98;;;9.77;;
29452;SDS011;16424;50.956;5.320;2023-05-14T01:30:23;12.55;;;9.90;;
29452;SDS011;16424;50.956;5.320;2023-05-14T01:32:57;11.13;;;8.35;;
29452;SDS011;16424;50.956;5.320;2023-05-14T01:35:26;10.95;;;9.43;;
29452;SDS011;16424;50.956;5.320;2023-05-14T01:37:58;13.27;;;9.52;;
29452;SDS011;16424;50.956;5.320;2023-05-14T01:40:25;15.00;;;9.00;;
29452;SDS011;16424;50.956;5.320;2023-05-14T01:42:51;14.52;;;9.75;;
29452;SDS011;16424;50.956;5.320;2023-05-14T01:45:21;12.15;;;9.18;;
29452;SDS011;16424;50.956;5.320;2023-05-14T01:47:48;14.38;;;9.02;;
29452;SDS011;16424;50.956;5.320;2023-05-14T01:50:14;19.05;;;9.98;;
29452;SDS011;16424;50.956;5.320;2023-05-14T01:52:40;14.63;;;9.20;;
29452;SDS011;16424;50.956;5.320;2023-05-14T01:55:06;14.57;;;10.00;;
29452;SDS011;16424;50.956;5.320;2023-05-14T01:57:32;13.38;;;10.63;;
29452;SDS011;16424;50.956;5.320;2023-05-14T01:59:57;12.93;;;10.65;;
29452;SDS011;16424;50.956;5.320;2023-05-14T02:02:23;16.17;;;10.15;;
29452;SDS011;16424;50.956;5.320;2023-05-14T02:04:49;13.75;;;9.77;;
29452;SDS011;16424;50.956;5.320;2023-05-14T02:07:14;12.68;;;10.70;;
29452;SDS011;16424;50.956;5.320;2023-05-14T02:09:40;17.15;;;11.48;;
29452;SDS011;16424;50.956;5.320;2023-05-14T02:12:06;15.88;;;11.45;;
29452;SDS011;16424;50.956;5.320;2023-05-14T02:14:33;18.13;;;11.15;;
29452;SDS011;16424;50.956;5.320;2023-05-14T02:16:58;19.27;;;11.23;;
29452;SDS011;16424;50.956;5.320;2023-05-14T02:19:24;16.17;;;11.73;;
29452;SDS011;16424;50.956;5.320;2023-05-14T02:21:49;17.23;;;13.00;;
29452;SDS011;16424;50.956;5.320;2023-05-14T02:24:15;26.08;;;14.07;;
29452;SDS011;16424;50.956;5.320;2023-05-14T02:26:41;20.65;;;15.10;;
29452;SDS011;16424;50.956;5.320;2023-05-14T02:29:06;18.33;;;14.13;;
29452;SDS011;16424;50.956;5.320;2023-05-14T02:31:32;14.52;;;12.60;;
29452;SDS011;16424;50.956;5.320;2023-05-14T02:33:59;16.70;;;13.45;;
29452;SDS011;16424;50.956;5.320;2023-05-14T02:36:26;20.83;;;14.70;;
29452;SDS011;16424;50.956;5.320;2023-05-14T02:38:51;19.98;;;14.32;;
29452;SDS011;16424;50.956;5.320;2023-05-14T02:41:17;19.33;;;14.95;;
29452;SDS011;16424;50.956;5.320;2023-05-14T02:43:43;21.38;;;13.63;;
29452;SDS011;16424;50.956;5.320;2023-05-14T02:46:08;17.60;;;13.55;;
29452;SDS011;16424;50.956;5.320;2023-05-14T02:48:34;23.05;;;14.32;;
29452;SDS011;16424;50.956;5.320;2023-05-14T02:50:59;19.58;;;13.90;;
29452;SDS011;16424;50.956;5.320;2023-05-14T02:53:26;19.50;;;13.80;;
29452;SDS011;16424;50.956;5.320;2023-05-14T02:55:51;20.88;;;13.85;;
29452;SDS011;16424;50.956;5.320;2023-05-14T02:58:17;17.73;;;13.98;;
29452;SDS011;16424;50.956;5.320;2023-05-14T03:00:43;20.23;;;14.07;;
29452;SDS011;16424;50.956;5.320;2023-05-14T03:03:08;19.02;;;14.32;;
29452;SDS011;16424;50.956;5.320;2023-05-14T03:05:34;20.40;;;14.10;;
29452;SDS011;16424;50.956;5.320;2023-05-14T03:08:00;16.98;;;13.90;;
29452;SDS011;16424;50.956;5.320;2023-05-14T03:10:25;19.90;;;14.00;;
29452;SDS011;16424;50.956;5.320;2023-05-14T03:12:51;20.73;;;14.68;;
29452;SDS011;16424;50.956;5.320;2023-05-14T03:15:17;17.13;;;13.20;;
29452;SDS011;16424;50.956;5.320;2023-05-14T03:17:42;20.42;;;14.00;;
29452;SDS011;16424;50.956;5.320;2023-05-14T03:20:08;17.83;;;12.65;;
29452;SDS011;16424;50.956;5.320;2023-05-14T03:22:34;20.92;;;13.40;;
29452;SDS011;16424;50.956;5.320;2023-05-14T03:25:00;19.83;;;14.88;;
29452;SDS011;16424;50.956;5.320;2023-05-14T03:27:26;19.33;;;14.48;;
29452;SDS011;16424;50.956;5.320;2023-05-14T03:29:51;19.13;;;13.93;;
29452;SDS011;16424;50.956;5.320;2023-05-14T03:32:17;19.42;;;14.52;;
29452;SDS011;16424;50.956;5.320;2023-05-14T03:34:43;21.35;;;14.90;;
29452;SDS011;16424;50.956;5.320;2023-05-14T03:37:09;20.98;;;13.40;;
29452;SDS011;16424;50.956;5.320;2023-05-14T03:39:35;16.73;;;12.82;;
29452;SDS011;16424;50.956;5.320;2023-05-14T03:42:00;15.52;;;12.13;;
29452;SDS011;16424;50.956;5.320;2023-05-14T03:44:26;18.67;;;13.38;;
29452;SDS011;16424;50.956;5.320;2023-05-14T03:46:52;21.92;;;13.80;;
29452;SDS011;16424;50.956;5.320;2023-05-14T03:49:17;19.83;;;13.85;;
29452;SDS011;16424;50.956;5.320;2023-05-14T03:51:43;20.75;;;13.98;;
29452;SDS011;16424;50.956;5.320;2023-05-14T03:54:09;19.80;;;14.07;;
29452;SDS011;16424;50.956;5.320;2023-05-14T03:56:35;22.52;;;14.38;;
29452;SDS011;16424;50.956;5.320;2023-05-14T03:59:00;23.20;;;15.07;;
29452;SDS011;16424;50.956;5.320;2023-05-14T04:01:26;25.52;;;16.83;;
29452;SDS011;16424;50.956;5.320;2023-05-14T04:03:52;25.42;;;18.35;;
29452;SDS011;16424;50.956;5.320;2023-05-14T04:06:17;28.65;;;17.50;;
29452;SDS011;16424;50.956;5.320;2023-05-14T04:08:43;36.15;;;21.42;;
29452;SDS011;16424;50.956;5.320;2023-05-14T04:11:09;35.85;;;21.33;;
29452;SDS011;16424;50.956;5.320;2023-05-14T04:13:34;32.80;;;20.63;;
29452;SDS011;16424;50.956;5.320;2023-05-14T04:16:00;31.52;;;21.52;;
29452;SDS011;16424;50.956;5.320;2023-05-14T04:18:26;35.92;;;21.85;;
29452;SDS011;16424;50.956;5.320;2023-05-14T04:20:51;33.33;;;21.65;;
29452;SDS011;16424;50.956;5.320;2023-05-14T04:23:17;31.92;;;21.52;;
29452;SDS011;16424;50.956;5.320;2023-05-14T04:25:43;33.70;;;21.92;;
29452;SDS011;16424;50.956;5.320;2023-05-14T04:28:08;39.38;;;23.33;;
29452;SDS011;16424;50.956;5.320;2023-05-14T04:30:34;33.38;;;22.58;;
29452;SDS011;16424;50.956;5.320;2023-05-14T04:32:59;37.67;;;25.40;;
29452;SDS011;16424;50.956;5.320;2023-05-14T04:35:25;35.22;;;23.70;;
29452;SDS011;16424;50.956;5.320;2023-05-14T04:37:51;30.48;;;22.13;;
29452;SDS011;16424;50.956;5.320;2023-05-14T04:40:17;33.53;;;24.15;;
29452;SDS011;16424;50.956;5.320;2023-05-14T04:42:43;42.67;;;23.83;;
29452;SDS011;16424;50.956;5.320;2023-05-14T04:45:09;35.67;;;25.30;;
29452;SDS011;16424;50.956;5.320;2023-05-14T04:47:35;39.42;;;24.63;;
29452;SDS011;16424;50.956;5.320;2023-05-14T04:50:01;35.90;;;24.27;;
29452;SDS011;16424;50.956;5.320;2023-05-14T04:52:27;37.47;;;25.70;;
29452;SDS011;16424;50.956;5.320;2023-05-14T04:54:52;38.65;;;26.60;;
29452;SDS011;16424;50.956;5.320;2023-05-14T04:57:18;39.42;;;25.52;;
29452;SDS011;16424;50.956;5.320;2023-05-14T04:59:45;38.20;;;26.27;;
29452;SDS011;16424;50.956;5.320;2023-05-14T05:02:10;37.88;;;24.52;;
29452;SDS011;16424;50.956;5.320;2023-05-14T05:04:37;36.38;;;24.02;;
29452;SDS011;16424;50.956;5.320;2023-05-14T05:07:03;38.08;;;25.08;;
29452;SDS011;16424;50.956;5.320;2023-05-14T05:09:29;34.38;;;24.23;;
29452;SDS011;16424;50.956;5.320;2023-05-14T05:11:55;34.83;;;23.65;;
29452;SDS011;16424;50.956;5.320;2023-05-14T05:14:21;36.38;;;24.85;;
29452;SDS011;16424;50.956;5.320;2023-05-14T05:16:47;37.03;;;24.98;;
29452;SDS011;16424;50.956;5.320;2023-05-14T05:19:12;38.15;;;24.40;;
29452;SDS011;16424;50.956;5.320;2023-05-14T05:21:38;35.35;;;23.58;;
29452;SDS011;16424;50.956;5.320;2023-05-14T05:24:05;35.08;;;23.05;;
29452;SDS011;16424;50.956;5.320;2023-05-14T05:26:31;27.52;;;20.52;;
29452;SDS011;16424;50.956;5.320;2023-05-14T05:28:57;31.98;;;21.00;;
29452;SDS011;16424;50.956;5.320;2023-05-14T05:31:22;26.63;;;18.55;;
29452;SDS011;16424;50.956;5.320;2023-05-14T05:33:48;27.40;;;18.00;;
29452;SDS011;16424;50.956;5.320;2023-05-14T05:36:14;21.55;;;16.65;;
29452;SDS011;16424;50.956;5.320;2023-05-14T05:38:39;21.42;;;17.17;;
29452;SDS011;16424;50.956;5.320;2023-05-14T05:41:05;24.92;;;17.20;;
29452;SDS011;16424;50.956;5.320;2023-05-14T05:43:31;19.02;;;16.10;;
29452;SDS011;16424;50.956;5.320;2023-05-14T05:45:59;26.00;;;15.85;;
29452;SDS011;16424;50.956;5.320;2023-05-14T05:48:25;20.52;;;16.27;;
29452;SDS011;16424;50.956;5.320;2023-05-14T05:50:50;19.38;;;14.95;;
29452;SDS011;16424;50.956;5.320;2023-05-14T05:53:16;20.17;;;15.38;;
29452;SDS011;16424;50.956;5.320;2023-05-14T05:55:42;19.65;;;15.23;;
29452;SDS011;16424;50.956;5.320;2023-05-14T05:58:08;20.33;;;14.48;;
29452;SDS011;16424;50.956;5.320;2023-05-14T06:00:33;21.17;;;14.90;;
29452;SDS011;16424;50.956;5.320;2023-05-14T06:02:59;21.55;;;16.23;;
29452;SDS011;16424;50.956;5.320;2023-05-14T06:05:25;20.73;;;15.02;;
29452;SDS011;16424;50.956;5.320;2023-05-14T06:07:51;18.98;;;15.25;;
29452;SDS011;16424;50.956;5.320;2023-05-14T06:10:19;21.27;;;16.13;;
29452;SDS011;16424;50.956;5.320;2023-05-14T06:12:45;19.90;;;13.82;;
29452;SDS011;16424;50.956;5.320;2023-05-14T06:15:10;21.17;;;15.27;;
29452;SDS011;16424;50.956;5.320;2023-05-14T06:17:36;20.02;;;14.95;;
29452;SDS011;16424;50.956;5.320;2023-05-14T06:20:03;18.17;;;14.73;;
29452;SDS011;16424;50.956;5.320;2023-05-14T06:22:29;17.52;;;14.25;;
29452;SDS011;16424;50.956;5.320;2023-05-14T06:24:55;20.50;;;15.57;;
29452;SDS011;16424;50.956;5.320;2023-05-14T06:27:21;19.38;;;14.30;;
29452;SDS011;16424;50.956;5.320;2023-05-14T06:29:46;23.33;;;15.32;;
29452;SDS011;16424;50.956;5.320;2023-05-14T06:32:12;17.45;;;14.60;;
29452;SDS011;16424;50.956;5.320;2023-05-14T06:34:39;20.38;;;14.65;;
29452;SDS011;16424;50.956;5.320;2023-05-14T06:37:06;23.38;;;16.13;;
29452;SDS011;16424;50.956;5.320;2023-05-14T06:39:33;21.40;;;13.95;;
29452;SDS011;16424;50.956;5.320;2023-05-14T06:41:59;24.13;;;15.80;;
29452;SDS011;16424;50.956;5.320;2023-05-14T06:44:25;18.75;;;14.98;;
29452;SDS011;16424;50.956;5.320;2023-05-14T06:46:51;18.35;;;15.13;;
29452;SDS011;16424;50.956;5.320;2023-05-14T06:49:16;18.67;;;15.68;;
29452;SDS011;16424;50.956;5.320;2023-05-14T06:51:42;19.30;;;14.60;;
29452;SDS011;16424;50.956;5.320;2023-05-14T06:54:08;17.88;;;14.35;;
29452;SDS011;16424;50.956;5.320;2023-05-14T06:56:33;20.08;;;13.93;;
29452;SDS011;16424;50.956;5.320;2023-05-14T06:58:59;18.58;;;13.73;;
29452;SDS011;16424;50.956;5.320;2023-05-14T07:01:25;15.13;;;12.32;;
29452;SDS011;16424;50.956;5.320;2023-05-14T07:03:50;18.13;;;14.00;;
29452;SDS011;16424;50.956;5.320;2023-05-14T07:06:16;15.65;;;12.73;;
29452;SDS011;16424;50.956;5.320;2023-05-14T07:08:42;20.60;;;12.98;;
29452;SDS011;16424;50.956;5.320;2023-05-14T07:11:10;17.42;;;13.20;;
29452;SDS011;16424;50.956;5.320;2023-05-14T07:13:37;17.50;;;13.43;;
29452;SDS011;16424;50.956;5.320;2023-05-14T07:16:03;24.10;;;13.90;;
29452;SDS011;16424;50.956;5.320;2023-05-14T07:18:29;17.63;;;13.70;;
29452;SDS011;16424;50.956;5.320;2023-05-14T07:20:55;19.30;;;13.40;;
29452;SDS011;16424;50.956;5.320;2023-05-14T07:23:20;21.23;;;13.40;;
29452;SDS011;16424;50.956;5.320;2023-05-14T07:25:46;16.77;;;12.85;;
29452;SDS011;16424;50.956;5.320;2023-05-14T07:28:12;16.48;;;13.40;;
29452;SDS011;16424;50.956;5.320;2023-05-14T07:30:37;18.67;;;14.13;;
29452;SDS011;16424;50.956;5.320;2023-05-14T07:33:03;20.25;;;15.02;;
29452;SDS011;16424;50.956;5.320;2023-05-14T07:35:29;20.45;;;15.82;;
29452;SDS011;16424;50.956;5.320;2023-05-14T07:37:55;22.27;;;15.88;;
29452;SDS011;16424;50.956;5.320;2023-05-14T07:40:20;21.75;;;15.55;;
29452;SDS011;16424;50.956;5.320;2023-05-14T07:42:46;18.25;;;15.18;;
29452;SDS011;16424;50.956;5.320;2023-05-14T07:45:12;19.48;;;15.15;;
29452;SDS011;16424;50.956;5.320;2023-05-14T07:47:37;17.67;;;14.13;;
29452;SDS011;16424;50.956;5.320;2023-05-14T07:50:04;18.70;;;14.30;;
29452;SDS011;16424;50.956;5.320;2023-05-14T07:52:31;21.73;;;14.02;;
29452;SDS011;16424;50.956;5.320;2023-05-14T07:54:56;21.05;;;13.00;;
29452;SDS011;16424;50.956;5.320;2023-05-14T07:57:22;19.30;;;14.45;;
29452;SDS011;16424;50.956;5.320;2023-05-14T07:59:48;17.90;;;14.40;;
29452;SDS011;16424;50.956;5.320;2023-05-14T08:02:13;21.00;;;13.88;;
29452;SDS011;16424;50.956;5.320;2023-05-14T08:04:40;17.92;;;14.10;;
29452;SDS011;16424;50.956;5.320;2023-05-14T08:07:06;20.48;;;13.75;;
29452;SDS011;16424;50.956;5.320;2023-05-14T08:09:33;21.02;;;12.02;;
29452;SDS011;16424;50.956;5.320;2023-05-14T08:11:58;16.77;;;12.95;;
29452;SDS011;16424;50.956;5.320;2023-05-14T08:14:24;22.88;;;12.77;;
29452;SDS011;16424;50.956;5.320;2023-05-14T08:16:49;17.52;;;13.25;;
29452;SDS011;16424;50.956;5.320;2023-05-14T08:19:15;18.70;;;13.82;;
29452;SDS011;16424;50.956;5.320;2023-05-14T08:21:41;17.10;;;13.10;;
29452;SDS011;16424;50.956;5.320;2023-05-14T08:24:06;17.92;;;12.43;;
29452;SDS011;16424;50.956;5.320;2023-05-14T08:26:32;16.00;;;11.50;;
29452;SDS011;16424;50.956;5.320;2023-05-14T08:28:58;20.67;;;12.70;;
29452;SDS011;16424;50.956;5.320;2023-05-14T08:31:23;20.50;;;12.82;;
29452;SDS011;16424;50.956;5.320;2023-05-14T08:33:49;16.02;;;12.32;;
29452;SDS011;16424;50.956;5.320;2023-05-14T08:36:15;15.02;;;11.65;;
29452;SDS011;16424;50.956;5.320;2023-05-14T08:38:40;18.75;;;11.88;;
29452;SDS011;16424;50.956;5.320;2023-05-14T08:41:06;16.70;;;10.77;;
29452;SDS011;16424;50.956;5.320;2023-05-14T08:44:18;18.23;;;12.18;;
29452;SDS011;16424;50.956;5.320;2023-05-14T08:46:37;13.85;;;10.88;;
29452;SDS011;16424;50.956;5.320;2023-05-14T08:49:46;16.25;;;11.35;;
29452;SDS011;16424;50.956;5.320;2023-05-14T08:51:52;13.27;;;10.20;;
29452;SDS011;16424;50.956;5.320;2023-05-14T08:54:18;13.20;;;9.98;;
29452;SDS011;16424;50.956;5.320;2023-05-14T08:56:47;12.40;;;10.20;;
29452;SDS011;16424;50.956;5.320;2023-05-14T08:59:15;20.38;;;10.40;;
29452;SDS011;16424;50.956;5.320;2023-05-14T09:01:42;13.30;;;8.75;;
29452;SDS011;16424;50.956;5.320;2023-05-14T09:04:18;21.85;;;10.98;;
29452;SDS011;16424;50.956;5.320;2023-05-14T09:06:47;16.65;;;13.00;;
29452;SDS011;16424;50.956;5.320;2023-05-14T09:09:14;14.88;;;10.93;;
29452;SDS011;16424;50.956;5.320;2023-05-14T09:11:41;13.45;;;9.75;;
29452;SDS011;16424;50.956;5.320;2023-05-14T09:14:09;18.60;;;12.27;;
29452;SDS011;16424;50.956;5.320;2023-05-14T09:16:35;12.35;;;9.68;;
29452;SDS011;16424;50.956;5.320;2023-05-14T09:19:02;11.60;;;8.90;;
29452;SDS011;16424;50.956;5.320;2023-05-14T09:21:28;11.38;;;8.80;;
29452;SDS011;16424;50.956;5.320;2023-05-14T09:23:56;12.30;;;8.90;;
29452;SDS011;16424;50.956;5.320;2023-05-14T09:26:23;12.73;;;8.95;;
29452;SDS011;16424;50.956;5.320;2023-05-14T09:28:53;14.48;;;9.52;;
29452;SDS011;16424;50.956;5.320;2023-05-14T09:31:20;12.27;;;9.77;;
29452;SDS011;16424;50.956;5.320;2023-05-14T09:33:49;14.52;;;9.15;;
29452;SDS011;16424;50.956;5.320;2023-05-14T09:36:16;14.18;;;9.80;;
29452;SDS011;16424;50.956;5.320;2023-05-14T09:38:42;15.30;;;10.52;;
29452;SDS011;16424;50.956;5.320;2023-05-14T09:41:07;12.57;;;9.57;;
29452;SDS011;16424;50.956;5.320;2023-05-14T09:43:33;13.77;;;11.20;;
29452;SDS011;16424;50.956;5.320;2023-05-14T09:45:59;15.65;;;11.38;;
29452;SDS011;16424;50.956;5.320;2023-05-14T09:48:25;19.63;;;11.70;;
29452;SDS011;16424;50.956;5.320;2023-05-14T09:50:50;13.90;;;10.98;;
29452;SDS011;16424;50.956;5.320;2023-05-14T09:53:16;20.40;;;11.60;;
29452;SDS011;16424;50.956;5.320;2023-05-14T09:55:42;13.23;;;10.93;;
29452;SDS011;16424;50.956;5.320;2023-05-14T09:58:09;17.52;;;12.23;;
29452;SDS011;16424;50.956;5.320;2023-05-14T10:00:35;15.48;;;10.30;;
29452;SDS011;16424;50.956;5.320;2023-05-14T10:03:05;15.00;;;10.68;;
29452;SDS011;16424;50.956;5.320;2023-05-14T10:05:35;19.00;;;12.10;;
29452;SDS011;16424;50.956;5.320;2023-05-14T10:08:06;17.35;;;11.15;;
29452;SDS011;16424;50.956;5.320;2023-05-14T10:10:38;13.60;;;10.50;;
29452;SDS011;16424;50.956;5.320;2023-05-14T10:13:06;14.70;;;11.15;;
29452;SDS011;16424;50.956;5.320;2023-05-14T10:15:46;15.93;;;10.38;;
29452;SDS011;16424;50.956;5.320;2023-05-14T10:18:16;17.23;;;11.10;;
29452;SDS011;16424;50.956;5.320;2023-05-14T10:20:47;14.95;;;10.35;;
29452;SDS011;16424;50.956;5.320;2023-05-14T10:23:17;16.20;;;11.23;;
29452;SDS011;16424;50.956;5.320;2023-05-14T10:25:43;13.27;;;10.45;;
29452;SDS011;16424;50.956;5.320;2023-05-14T10:28:09;17.73;;;11.23;;
29452;SDS011;16424;50.956;5.320;2023-05-14T10:30:40;18.45;;;11.00;;
29452;SDS011;16424;50.956;5.320;2023-05-14T10:33:10;13.25;;;11.20;;
29452;SDS011;16424;50.956;5.320;2023-05-14T10:38:33;16.20;;;9.98;;
29452;SDS011;16424;50.956;5.320;2023-05-14T10:41:00;14.10;;;10.20;;
29452;SDS011;16424;50.956;5.320;2023-05-14T10:43:28;14.07;;;10.25;;
29452;SDS011;16424;50.956;5.320;2023-05-14T10:45:55;13.70;;;9.50;;
29452;SDS011;16424;50.956;5.320;2023-05-14T10:48:22;12.02;;;8.93;;
29452;SDS011;16424;50.956;5.320;2023-05-14T10:50:49;10.95;;;8.23;;
29452;SDS011;16424;50.956;5.320;2023-05-14T10:53:16;17.13;;;8.40;;
29452;SDS011;16424;50.956;5.320;2023-05-14T10:55:42;12.68;;;9.77;;
29452;SDS011;16424;50.956;5.320;2023-05-14T10:58:09;14.77;;;9.32;;
29452;SDS011;16424;50.956;5.320;2023-05-14T11:00:36;13.52;;;7.88;;
29452;SDS011;16424;50.956;5.320;2023-05-14T11:03:02;10.70;;;7.70;;
29452;SDS011;16424;50.956;5.320;2023-05-14T11:05:29;9.48;;;7.22;;
29452;SDS011;16424;50.956;5.320;2023-05-14T11:07:56;10.07;;;7.55;;
29452;SDS011;16424;50.956;5.320;2023-05-14T11:10:22;12.82;;;8.98;;
29452;SDS011;16424;50.956;5.320;2023-05-14T11:12:54;10.75;;;8.25;;
29452;SDS011;16424;50.956;5.320;2023-05-14T11:15:22;12.18;;;8.30;;
29452;SDS011;16424;50.956;5.320;2023-05-14T11:17:49;12.30;;;7.47;;
29452;SDS011;16424;50.956;5.320;2023-05-14T11:20:16;10.27;;;7.72;;
29452;SDS011;16424;50.956;5.320;2023-05-14T11:22:42;10.75;;;7.70;;
29452;SDS011;16424;50.956;5.320;2023-05-14T11:25:09;9.65;;;7.30;;
29452;SDS011;16424;50.956;5.320;2023-05-14T11:27:40;9.90;;;7.10;;
29452;SDS011;16424;50.956;5.320;2023-05-14T11:30:13;13.73;;;8.20;;
29452;SDS011;16424;50.956;5.320;2023-05-14T11:32:40;9.73;;;7.05;;
29452;SDS011;16424;50.956;5.320;2023-05-14T11:35:07;13.80;;;6.90;;
29452;SDS011;16424;50.956;5.320;2023-05-14T11:37:33;10.98;;;7.07;;
29452;SDS011;16424;50.956;5.320;2023-05-14T11:39:59;12.15;;;7.35;;
29452;SDS011;16424;50.956;5.320;2023-05-14T11:42:26;8.30;;;6.85;;
29452;SDS011;16424;50.956;5.320;2023-05-14T11:44:51;14.60;;;7.35;;
29452;SDS011;16424;50.956;5.320;2023-05-14T11:47:20;13.73;;;7.80;;
29452;SDS011;16424;50.956;5.320;2023-05-14T11:49:47;11.23;;;7.22;;
29452;SDS011;16424;50.956;5.320;2023-05-14T11:52:13;11.10;;;7.13;;
29452;SDS011;16424;50.956;5.320;2023-05-14T11:54:41;8.30;;;6.20;;
29452;SDS011;16424;50.956;5.320;2023-05-14T11:57:08;8.65;;;5.95;;
29452;SDS011;16424;50.956;5.320;2023-05-14T11:59:36;11.75;;;6.90;;
29452;SDS011;16424;50.956;5.320;2023-05-14T12:02:02;10.88;;;6.78;;
29452;SDS011;16424;50.956;5.320;2023-05-14T12:04:29;9.68;;;5.88;;
29452;SDS011;16424;50.956;5.320;2023-05-14T12:06:56;9.50;;;6.22;;
29452;SDS011;16424;50.956;5.320;2023-05-14T12:09:23;11.50;;;6.55;;
29452;SDS011;16424;50.956;5.320;2023-05-14T12:11:49;9.93;;;5.93;;
29452;SDS011;16424;50.956;5.320;2023-05-14T12:14:19;10.95;;;5.68;;
29452;SDS011;16424;50.956;5.320;2023-05-14T12:16:46;10.82;;;5.93;;
29452;SDS011;16424;50.956;5.320;2023-05-14T12:19:13;9.63;;;5.22;;
29452;SDS011;16424;50.956;5.320;2023-05-14T12:21:41;7.38;;;5.75;;
29452;SDS011;16424;50.956;5.320;2023-05-14T12:24:08;8.57;;;6.07;;
29452;SDS011;16424;50.956;5.320;2023-05-14T12:26:36;8.50;;;5.70;;
29452;SDS011;16424;50.956;5.320;2023-05-14T12:29:03;9.55;;;5.55;;
29452;SDS011;16424;50.956;5.320;2023-05-14T12:31:31;8.15;;;5.45;;
29452;SDS011;16424;50.956;5.320;2023-05-14T12:33:58;7.57;;;5.82;;
29452;SDS011;16424;50.956;5.320;2023-05-14T12:36:24;8.75;;;5.53;;
29452;SDS011;16424;50.956;5.320;2023-05-14T12:38:52;9.55;;;6.32;;
29452;SDS011;16424;50.956;5.320;2023-05-14T12:41:23;9.13;;;6.35;;
29452;SDS011;16424;50.956;5.320;2023-05-14T12:43:48;10.05;;;7.05;;
29452;SDS011;16424;50.956;5.320;2023-05-14T12:46:14;9.95;;;6.00;;
29452;SDS011;16424;50.956;5.320;2023-05-14T12:48:41;8.18;;;6.35;;
29452;SDS011;16424;50.956;5.320;2023-05-14T12:51:06;14.30;;;6.97;;
29452;SDS011;16424;50.956;5.320;2023-05-14T12:53:32;7.40;;;5.10;;
29452;SDS011;16424;50.956;5.320;2023-05-14T12:55:59;7.57;;;5.15;;
29452;SDS011;16424;50.956;5.320;2023-05-14T12:58:24;8.05;;;5.55;;
29452;SDS011;16424;50.956;5.320;2023-05-14T13:00:50;10.50;;;6.30;;
29452;SDS011;16424;50.956;5.320;2023-05-14T13:03:16;8.25;;;5.68;;
29452;SDS011;16424;50.956;5.320;2023-05-14T13:05:41;8.32;;;4.82;;
29452;SDS011;16424;50.956;5.320;2023-05-14T13:08:07;8.95;;;5.80;;
29452;SDS011;16424;50.956;5.320;2023-05-14T13:10:34;7.97;;;4.78;;
29452;SDS011;16424;50.956;5.320;2023-05-14T13:12:59;6.55;;;3.97;;
29452;SDS011;16424;50.956;5.320;2023-05-14T13:15:28;7.00;;;4.65;;
29452;SDS011;16424;50.956;5.320;2023-05-14T13:17:55;6.97;;;3.95;;
29452;SDS011;16424;50.956;5.320;2023-05-14T13:20:21;11.18;;;4.13;;
29452;SDS011;16424;50.956;5.320;2023-05-14T13:22:47;7.88;;;5.82;;
29452;SDS011;16424;50.956;5.320;2023-05-14T13:25:13;8.90;;;5.90;;
29452;SDS011;16424;50.956;5.320;2023-05-14T13:27:38;12.57;;;6.38;;
29452;SDS011;16424;50.956;5.320;2023-05-14T13:30:04;8.23;;;5.32;;
29452;SDS011;16424;50.956;5.320;2023-05-14T13:32:30;11.23;;;5.25;;
29452;SDS011;16424;50.956;5.320;2023-05-14T13:34:56;6.68;;;4.93;;
29452;SDS011;16424;50.956;5.320;2023-05-14T13:37:22;10.70;;;4.40;;
29452;SDS011;16424;50.956;5.320;2023-05-14T13:39:48;8.68;;;5.40;;
29452;SDS011;16424;50.956;5.320;2023-05-14T13:42:14;6.78;;;5.35;;
29452;SDS011;16424;50.956;5.320;2023-05-14T13:44:40;6.10;;;4.10;;
29452;SDS011;16424;50.956;5.320;2023-05-14T13:47:05;7.55;;;4.45;;
29452;SDS011;16424;50.956;5.320;2023-05-14T13:49:31;6.55;;;4.25;;
29452;SDS011;16424;50.956;5.320;2023-05-14T13:51:57;6.57;;;4.47;;
29452;SDS011;16424;50.956;5.320;2023-05-14T13:54:22;6.30;;;4.30;;
29452;SDS011;16424;50.956;5.320;2023-05-14T13:56:48;6.50;;;4.07;;
29452;SDS011;16424;50.956;5.320;2023-05-14T13:59:14;6.35;;;4.07;;
29452;SDS011;16424;50.956;5.320;2023-05-14T14:01:39;6.72;;;4.05;;
29452;SDS011;16424;50.956;5.320;2023-05-14T14:04:07;8.13;;;3.85;;
29452;SDS011;16424;50.956;5.320;2023-05-14T14:06:33;7.45;;;5.00;;
29452;SDS011;16424;50.956;5.320;2023-05-14T14:08:59;24.35;;;5.75;;
29452;SDS011;16424;50.956;5.320;2023-05-14T14:11:25;8.25;;;4.63;;
29452;SDS011;16424;50.956;5.320;2023-05-14T14:13:51;8.18;;;4.75;;
29452;SDS011;16424;50.956;5.320;2023-05-14T14:16:17;14.43;;;4.47;;
29452;SDS011;16424;50.956;5.320;2023-05-14T14:18:43;8.43;;;5.28;;
29452;SDS011;16424;50.956;5.320;2023-05-14T14:21:09;8.38;;;5.72;;
29452;SDS011;16424;50.956;5.320;2023-05-14T14:23:34;7.63;;;5.50;;
29452;SDS011;16424;50.956;5.320;2023-05-14T14:26:00;5.80;;;5.15;;
29452;SDS011;16424;50.956;5.320;2023-05-14T14:28:26;8.82;;;5.00;;
29452;SDS011;16424;50.956;5.320;2023-05-14T14:30:51;7.35;;;5.32;;
29452;SDS011;16424;50.956;5.320;2023-05-14T14:33:17;8.10;;;5.00;;
29452;SDS011;16424;50.956;5.320;2023-05-14T14:35:43;10.05;;;5.05;;
29452;SDS011;16424;50.956;5.320;2023-05-14T14:38:08;6.90;;;4.57;;
29452;SDS011;16424;50.956;5.320;2023-05-14T14:40:34;8.10;;;5.03;;